createdAt,value
2023-03-29T00:02:30.416Z,57.55
2023-03-29T00:04:58.065Z,56.47
2023-03-29T00:07:26.122Z,57.57
2023-03-29T00:09:53.071Z,56.94
2023-03-29T00:12:19.892Z,57.58
2023-03-29T00:14:46.674Z,59.15
2023-03-29T00:17:13.616Z,60.41
2023-03-29T00:19:42.857Z,60.25
2023-03-29T00:22:09.827Z,58.71
2023-03-29T00:24:36.706Z,59.58
2023-03-29T00:27:03.823Z,54.95
2023-03-29T00:29:30.721Z,51.49
2023-03-29T00:31:57.509Z,50.76
2023-03-29T00:34:26.485Z,50.17
2023-03-29T00:36:53.228Z,45.88
2023-03-29T00:39:20.744Z,49.03
2023-03-29T00:41:49.770Z,49.57
2023-03-29T00:44:54.311Z,47.93
2023-03-29T00:47:43.304Z,48.66
2023-03-29T00:50:15.459Z,50.65
2023-03-29T00:52:46.396Z,53.31
2023-03-29T00:55:18.532Z,54.53
2023-03-29T00:57:46.925Z,55.28
2023-03-29T01:00:20.969Z,52.91
2023-03-29T01:02:54.264Z,54.09
2023-03-29T01:05:31.035Z,54.20
2023-03-29T01:08:03.050Z,54.95
2023-03-29T01:10:37.184Z,53.96
2023-03-29T01:13:09.708Z,50.85
2023-03-29T01:15:40.890Z,51.97
2023-03-29T01:18:08.902Z,54.52
2023-03-29T01:20:53.917Z,50.69
2023-03-29T01:23:32.929Z,49.84
2023-03-29T01:26:18.917Z,52.99
2023-03-29T01:28:52.784Z,51.81
2023-03-29T01:31:27.058Z,52.93
2023-03-29T01:34:09.960Z,53.60
2023-03-29T01:36:43.273Z,55.60
2023-03-29T01:39:10.359Z,56.49
2023-03-29T01:41:40.226Z,52.73
2023-03-29T01:44:13.532Z,52.50
2023-03-29T01:46:47.028Z,54.13
2023-03-29T01:49:24.824Z,54.32
2023-03-29T01:51:59.843Z,52.97
2023-03-29T01:54:51.478Z,53.64
2023-03-29T01:57:22.953Z,54.56
2023-03-29T01:59:54.492Z,55.93
2023-03-29T02:02:23.625Z,55.88
2023-03-29T02:05:01.602Z,55.65
2023-03-29T02:07:31.314Z,58.33
2023-03-29T02:10:03.327Z,59.48
2023-03-29T02:12:30.401Z,59.57
2023-03-29T02:15:01.250Z,57.71
2023-03-29T02:17:32.094Z,56.77
2023-03-29T02:20:04.691Z,57.68
2023-03-29T02:22:42.224Z,57.57
2023-03-29T02:25:09.666Z,56.79
2023-03-29T02:27:38.553Z,58.52
2023-03-29T02:30:09.830Z,57.85
2023-03-29T02:32:55.568Z,55.55
2023-03-29T02:35:34.603Z,58.21
2023-03-29T02:38:04.827Z,57.18
2023-03-29T02:40:33.410Z,56.54
2023-03-29T02:43:02.649Z,57.06
2023-03-29T02:45:31.448Z,56.57
2023-03-29T02:48:03.638Z,57.43
2023-03-29T02:50:37.522Z,58.15
2023-03-29T02:53:13.379Z,57.64
2023-03-29T02:55:42.173Z,58.30
2023-03-29T02:58:09.235Z,58.85
2023-03-29T03:00:42.168Z,59.20
2023-03-29T03:03:10.332Z,61.29
2023-03-29T03:05:38.396Z,63.03
2023-03-29T03:08:07.524Z,64.68
2023-03-29T03:10:35.475Z,66.61
2023-03-29T03:13:04.023Z,67.06
2023-03-29T03:15:35.708Z,66.67
2023-03-29T03:18:05.532Z,66.60
2023-03-29T03:20:33.495Z,66.67
2023-03-29T03:23:01.186Z,67.26
2023-03-29T03:25:28.769Z,68.31
2023-03-29T03:27:55.925Z,68.83
2023-03-29T03:30:24.537Z,70.16
2023-03-29T03:33:10.016Z,69.50
2023-03-29T03:35:57.331Z,68.70
2023-03-29T03:38:25.226Z,67.77
2023-03-29T03:40:57.963Z,66.39
2023-03-29T03:43:25.713Z,65.67
2023-03-29T03:45:52.759Z,65.25
2023-03-29T03:48:25.572Z,65.71
2023-03-29T03:51:01.462Z,64.38
2023-03-29T03:53:33.902Z,64.15
2023-03-29T03:56:13.544Z,64.84
2023-03-29T03:59:01.173Z,63.34
2023-03-29T04:01:33.950Z,62.79
2023-03-29T04:04:12.277Z,63.42
2023-03-29T04:06:43.741Z,63.59
2023-03-29T04:09:32.262Z,66.17
2023-03-29T04:12:25.778Z,65.48
2023-03-29T04:14:52.597Z,64.31
2023-03-29T04:17:21.584Z,64.64
2023-03-29T04:20:12.681Z,64.58
2023-03-29T04:22:41.235Z,64.64
2023-03-29T04:25:08.812Z,65.95
2023-03-29T04:27:59.757Z,66.15
2023-03-29T04:30:55.433Z,66.64
2023-03-29T04:33:47.557Z,66.61
2023-03-29T04:36:16.011Z,67.18
2023-03-29T04:38:47.317Z,67.11
2023-03-29T04:41:15.696Z,68.21
2023-03-29T04:43:48.385Z,68.04
2023-03-29T04:46:26.612Z,68.01
2023-03-29T04:49:06.983Z,68.28
2023-03-29T04:51:37.502Z,68.82
2023-03-29T04:54:04.980Z,69.50
2023-03-29T04:56:41.277Z,69.64
2023-03-29T04:59:32.231Z,68.85
2023-03-29T05:02:03.175Z,68.02
2023-03-29T05:04:30.944Z,68.65
2023-03-29T05:07:06.678Z,69.63
2023-03-29T05:09:35.664Z,68.62
2023-03-29T05:12:04.565Z,69.15
2023-03-29T05:14:43.253Z,68.67
2023-03-29T05:17:10.344Z,69.21
2023-03-29T05:19:38.424Z,67.97
2023-03-29T05:22:06.912Z,66.95
2023-03-29T05:24:34.010Z,67.70
2023-03-29T05:27:06.465Z,69.16
2023-03-29T05:29:36.686Z,69.82
2023-03-29T05:32:23.001Z,68.91
2023-03-29T05:34:50.473Z,68.68
2023-03-29T05:37:17.888Z,71.01
2023-03-29T05:39:53.319Z,70.13
2023-03-29T05:42:36.388Z,70.69
2023-03-29T05:45:08.409Z,70.52
2023-03-29T05:47:36.135Z,71.14
2023-03-29T05:50:03.918Z,70.40
2023-03-29T05:52:31.030Z,70.56
2023-03-29T05:54:57.772Z,70.83
2023-03-29T05:57:25.628Z,71.63
2023-03-29T05:59:52.385Z,71.47
2023-03-29T06:02:20.062Z,72.79
2023-03-29T06:04:51.941Z,72.22
2023-03-29T06:07:24.766Z,72.81
2023-03-29T06:10:15.854Z,73.27
2023-03-29T06:12:47.794Z,72.98
2023-03-29T06:15:16.063Z,72.89
2023-03-29T06:17:59.261Z,72.00
2023-03-29T06:20:26.382Z,72.33
2023-03-29T06:22:58.712Z,72.24
2023-03-29T06:25:25.476Z,72.15
2023-03-29T06:27:52.407Z,71.90
2023-03-29T06:30:20.930Z,71.87
2023-03-29T06:32:53.393Z,71.89
2023-03-29T06:35:45.805Z,73.50
2023-03-29T06:38:16.556Z,73.52
2023-03-29T06:41:11.224Z,72.98
2023-03-29T06:44:10.644Z,72.55
2023-03-29T06:46:50.110Z,71.93
2023-03-29T06:49:17.003Z,72.20
2023-03-29T06:52:22.758Z,71.59
2023-03-29T06:54:50.731Z,71.54
2023-03-29T06:57:18.802Z,71.61
2023-03-29T06:59:46.576Z,71.31
2023-03-29T07:02:17.645Z,70.13
2023-03-29T07:04:48.798Z,68.29
2023-03-29T07:07:27.550Z,67.81
2023-03-29T07:10:09.027Z,67.07
2023-03-29T07:13:00.840Z,66.96
2023-03-29T07:15:30.094Z,66.95
2023-03-29T07:18:25.841Z,66.87
2023-03-29T07:20:52.995Z,67.44
2023-03-29T07:23:19.771Z,68.05
2023-03-29T07:25:47.591Z,67.70
2023-03-29T07:28:14.679Z,68.52
2023-03-29T07:30:41.506Z,68.74
2023-03-29T07:33:18.252Z,69.29
2023-03-29T07:35:55.337Z,69.50
2023-03-29T07:38:22.893Z,70.09
2023-03-29T07:40:56.357Z,69.34
2023-03-29T07:43:38.284Z,69.08
2023-03-29T07:46:06.298Z,68.64
2023-03-29T07:48:37.219Z,69.06
2023-03-29T07:51:07.612Z,68.56
2023-03-29T07:53:45.181Z,68.28
2023-03-29T07:56:51.087Z,68.06
2023-03-29T07:59:25.464Z,67.63
2023-03-29T08:02:02.291Z,68.52
2023-03-29T08:04:34.061Z,68.03
2023-03-29T08:07:21.374Z,66.42
2023-03-29T08:10:19.276Z,63.52
2023-03-29T08:12:50.401Z,63.22
2023-03-29T08:15:19.965Z,62.74
2023-03-29T08:17:47.274Z,61.65
2023-03-29T08:20:16.451Z,61.87
2023-03-29T08:22:46.431Z,62.39
2023-03-29T08:25:28.359Z,61.73
2023-03-29T08:27:55.492Z,62.36
2023-03-29T08:30:48.343Z,62.36
2023-03-29T08:33:15.731Z,61.12
2023-03-29T08:35:43.991Z,61.20
2023-03-29T08:38:19.049Z,62.53
2023-03-29T08:40:48.862Z,63.24
2023-03-29T08:43:45.698Z,64.05
2023-03-29T08:46:44.352Z,64.95
2023-03-29T08:49:27.604Z,64.79
2023-03-29T08:52:01.333Z,64.57
2023-03-29T08:54:43.555Z,64.90
2023-03-29T08:57:19.556Z,65.50
2023-03-29T08:59:53.705Z,66.26
2023-03-29T09:02:27.867Z,65.81
2023-03-29T09:05:29.468Z,64.63
2023-03-29T09:08:03.791Z,64.44
2023-03-29T09:10:42.489Z,65.26
2023-03-29T09:13:54.090Z,65.86
2023-03-29T09:16:32.899Z,65.94
2023-03-29T09:19:02.976Z,65.02
2023-03-29T09:21:46.826Z,65.77
2023-03-29T09:24:33.126Z,66.39
2023-03-29T09:27:15.372Z,66.46
2023-03-29T09:29:58.723Z,66.05
2023-03-29T09:33:08.437Z,66.89
2023-03-29T09:36:12.047Z,65.03
2023-03-29T09:38:42.810Z,66.00
2023-03-29T09:41:35.670Z,66.41
2023-03-29T09:44:20.588Z,65.15
2023-03-29T09:47:01.959Z,65.56
2023-03-29T09:49:36.607Z,65.42
2023-03-29T09:52:11.566Z,65.00
2023-03-29T09:54:39.238Z,65.39
2023-03-29T09:57:26.356Z,65.33
2023-03-29T09:59:54.509Z,65.58
2023-03-29T10:02:21.844Z,65.65
2023-03-29T10:05:03.955Z,65.39
2023-03-29T10:07:44.533Z,65.85
2023-03-29T10:10:22.218Z,66.55
2023-03-29T10:12:51.933Z,66.98
2023-03-29T10:15:29.301Z,66.58
2023-03-29T10:18:03.649Z,66.52
2023-03-29T10:20:30.799Z,65.06
2023-03-29T10:22:59.325Z,64.99
2023-03-29T10:25:31.571Z,65.53
2023-03-29T10:28:08.289Z,66.67
2023-03-29T10:30:39.129Z,65.81
2023-03-29T10:33:16.033Z,66.50
2023-03-29T10:35:43.694Z,66.82
2023-03-29T10:38:14.983Z,67.58
2023-03-29T10:40:48.180Z,67.30
2023-03-29T10:43:21.311Z,67.30
2023-03-29T10:45:49.504Z,67.67
2023-03-29T10:48:17.715Z,67.84
2023-03-29T10:50:50.498Z,67.09
2023-03-29T10:53:27.102Z,68.03
2023-03-29T10:56:42.034Z,67.12
2023-03-29T10:59:09.333Z,66.44
2023-03-29T11:02:03.185Z,66.97
2023-03-29T11:04:57.442Z,66.43
2023-03-29T11:07:35.899Z,66.86
2023-03-29T11:10:40.185Z,66.45
2023-03-29T11:13:31.613Z,66.13
2023-03-29T11:16:26.541Z,66.56
2023-03-29T11:19:19.241Z,68.18
2023-03-29T11:22:01.224Z,69.17
2023-03-29T11:24:37.118Z,70.00
2023-03-29T11:27:31.302Z,71.67
2023-03-29T11:30:33.958Z,72.81
2023-03-29T11:33:29.886Z,71.43
2023-03-29T11:36:16.932Z,69.99
2023-03-29T11:39:04.516Z,70.86
2023-03-29T11:41:36.009Z,70.40
2023-03-29T11:44:02.682Z,71.65
2023-03-29T11:46:56.902Z,71.93
2023-03-29T11:49:30.095Z,69.93
2023-03-29T11:52:20.010Z,69.57
2023-03-29T11:54:53.226Z,70.07
2023-03-29T11:57:32.100Z,72.18
2023-03-29T12:00:12.443Z,72.93
2023-03-29T12:02:56.006Z,74.03
2023-03-29T12:05:31.114Z,74.77
2023-03-29T12:08:13.933Z,75.10
2023-03-29T12:10:58.170Z,75.41
2023-03-29T12:13:32.368Z,75.68
2023-03-29T12:16:05.944Z,75.56
2023-03-29T12:18:39.882Z,75.68
2023-03-29T12:21:14.713Z,75.52
2023-03-29T12:23:43.963Z,75.73
2023-03-29T12:26:29.011Z,75.87
2023-03-29T12:29:05.676Z,75.81
2023-03-29T12:31:51.300Z,75.91
2023-03-29T12:34:51.745Z,76.24
2023-03-29T12:37:32.939Z,76.34
2023-03-29T12:40:21.303Z,77.25
2023-03-29T12:43:29.132Z,77.88
2023-03-29T12:46:23.051Z,78.02
2023-03-29T12:48:55.019Z,78.04
2023-03-29T12:51:29.748Z,77.94
2023-03-29T12:54:03.620Z,78.54
2023-03-29T12:56:54.890Z,78.19
2023-03-29T12:59:38.460Z,77.79
2023-03-29T13:02:14.220Z,77.70
2023-03-29T13:04:43.850Z,78.46
2023-03-29T13:07:23.056Z,78.56
2023-03-29T13:09:53.137Z,78.49
2023-03-29T13:12:22.885Z,78.76
2023-03-29T13:14:55.944Z,78.43
2023-03-29T13:17:48.803Z,78.66
2023-03-29T13:20:43.387Z,78.80
2023-03-29T13:23:39.231Z,78.56
2023-03-29T13:26:39.676Z,78.57
2023-03-29T13:29:12.308Z,78.42
2023-03-29T13:32:17.761Z,78.49
2023-03-29T13:34:59.638Z,78.78
2023-03-29T13:37:46.830Z,79.04
2023-03-29T13:40:38.991Z,79.30
2023-03-29T13:43:25.204Z,79.35
2023-03-29T13:45:52.344Z,79.56
2023-03-29T13:48:27.234Z,79.45
2023-03-29T13:50:54.048Z,79.87
2023-03-29T13:53:35.201Z,78.68
2023-03-29T13:56:03.230Z,79.46
2023-03-29T13:58:51.511Z,78.91
2023-03-29T14:01:43.917Z,78.73
2023-03-29T14:04:20.264Z,78.34
2023-03-29T14:06:53.206Z,78.41
2023-03-29T14:09:23.657Z,78.89
2023-03-29T14:11:51.631Z,79.14
2023-03-29T14:14:24.155Z,79.92
2023-03-29T14:16:51.491Z,80.21
2023-03-29T14:19:37.605Z,80.63
2023-03-29T14:22:10.896Z,81.45
2023-03-29T14:24:40.569Z,81.64
2023-03-29T14:27:10.336Z,81.57
2023-03-29T14:29:37.522Z,81.82
2023-03-29T14:32:12.632Z,81.70
2023-03-29T14:34:40.236Z,81.99
2023-03-29T14:37:09.140Z,81.46
2023-03-29T14:39:36.543Z,81.37
2023-03-29T14:42:03.765Z,81.10
2023-03-29T14:44:33.464Z,81.65
2023-03-29T14:47:03.004Z,81.32
2023-03-29T14:49:31.801Z,81.11
2023-03-29T14:51:59.350Z,79.67
2023-03-29T14:54:29.008Z,79.68
2023-03-29T14:56:56.296Z,78.09
2023-03-29T14:59:32.078Z,76.71
2023-03-29T15:01:59.015Z,75.75
2023-03-29T15:04:35.726Z,76.71
2023-03-29T15:07:04.411Z,76.34
2023-03-29T15:09:34.308Z,74.96
2023-03-29T15:12:02.981Z,75.48
2023-03-29T15:14:34.030Z,75.14
2023-03-29T15:17:17.072Z,75.47
2023-03-29T15:19:43.810Z,76.20
2023-03-29T15:22:11.483Z,75.24
2023-03-29T15:24:47.535Z,76.16
2023-03-29T15:27:17.412Z,76.65
2023-03-29T15:29:46.928Z,77.16
2023-03-29T15:32:24.452Z,77.81
2023-03-29T15:35:02.907Z,78.51
2023-03-29T15:37:29.719Z,78.59
2023-03-29T15:39:57.190Z,78.88
2023-03-29T15:42:24.935Z,79.44
2023-03-29T15:44:56.265Z,79.31
2023-03-29T15:47:24.049Z,79.38
2023-03-29T15:49:50.944Z,79.47
2023-03-29T15:52:17.824Z,79.69
2023-03-29T15:54:44.568Z,80.07
2023-03-29T15:57:14.888Z,80.19
2023-03-29T15:59:43.486Z,80.85
2023-03-29T16:02:16.466Z,80.73
2023-03-29T16:04:43.799Z,80.16
2023-03-29T16:07:14.034Z,80.23
2023-03-29T16:09:40.925Z,80.17
2023-03-29T16:12:07.892Z,80.12
2023-03-29T16:14:34.925Z,80.12
2023-03-29T16:17:03.355Z,80.06
2023-03-29T16:19:31.799Z,80.64
2023-03-29T16:21:59.901Z,80.99
2023-03-29T16:24:29.215Z,81.36
2023-03-29T16:26:56.568Z,81.41
2023-03-29T16:29:24.946Z,81.75
2023-03-29T16:31:52.892Z,81.63
2023-03-29T16:34:20.599Z,81.54
2023-03-29T16:36:47.933Z,81.60
2023-03-29T16:39:15.973Z,81.73
2023-03-29T16:41:43.271Z,81.79
2023-03-29T16:44:20.054Z,82.08
2023-03-29T16:46:48.926Z,82.48
2023-03-29T16:49:18.474Z,82.70
2023-03-29T16:51:48.679Z,82.90
2023-03-29T16:54:17.229Z,82.95
2023-03-29T16:56:44.479Z,82.83
2023-03-29T16:59:12.226Z,82.59
2023-03-29T17:01:40.618Z,83.00
2023-03-29T17:04:08.840Z,82.75
2023-03-29T17:06:36.038Z,83.04
2023-03-29T17:09:05.146Z,83.15
2023-03-29T17:11:32.292Z,83.56
2023-03-29T17:13:59.265Z,83.68
2023-03-29T17:16:28.964Z,83.75
2023-03-29T17:19:00.354Z,84.21
2023-03-29T17:21:28.962Z,84.45
2023-03-29T17:23:55.675Z,84.43
2023-03-29T17:26:22.516Z,84.42
2023-03-29T17:28:49.531Z,84.91
2023-03-29T17:31:17.053Z,84.57
2023-03-29T17:33:43.714Z,84.59
2023-03-29T17:36:11.217Z,85.16
2023-03-29T17:38:38.308Z,85.59
2023-03-29T17:41:07.064Z,85.52
2023-03-29T17:43:34.152Z,86.09
2023-03-29T17:46:01.082Z,85.89
2023-03-29T17:48:28.448Z,86.34
2023-03-29T17:50:56.624Z,86.55
2023-03-29T17:53:23.616Z,86.58
2023-03-29T17:55:50.422Z,86.65
2023-03-29T17:58:17.225Z,87.54
2023-03-29T18:00:44.111Z,88.74
2023-03-29T18:03:11.746Z,89.02
2023-03-29T18:05:38.541Z,88.64
2023-03-29T18:08:05.474Z,88.91
2023-03-29T18:10:32.574Z,89.02
2023-03-29T18:12:59.382Z,89.65
2023-03-29T18:15:26.144Z,91.31
2023-03-29T18:17:53.099Z,91.57
2023-03-29T18:20:20.853Z,90.92
2023-03-29T18:22:47.827Z,90.46
2023-03-29T18:25:14.973Z,90.51
2023-03-29T18:27:41.776Z,90.61
2023-03-29T18:30:09.017Z,90.80
2023-03-29T18:32:36.790Z,91.01
2023-03-29T18:35:03.965Z,91.13
2023-03-29T18:37:31.113Z,91.11
2023-03-29T18:39:57.834Z,90.89
2023-03-29T18:42:24.685Z,90.92
2023-03-29T18:44:51.532Z,91.31
2023-03-29T18:47:18.494Z,91.00
2023-03-29T18:49:45.391Z,90.88
2023-03-29T18:52:13.493Z,91.27
2023-03-29T18:54:40.264Z,91.53
2023-03-29T18:57:07.162Z,91.29
2023-03-29T18:59:36.553Z,91.30
2023-03-29T19:02:04.044Z,91.32
2023-03-29T19:04:30.862Z,91.35
2023-03-29T19:06:57.864Z,91.41
2023-03-29T19:09:24.767Z,91.23
2023-03-29T19:11:51.712Z,91.31
2023-03-29T19:14:23.499Z,91.15
2023-03-29T19:16:51.529Z,91.45
2023-03-29T19:19:19.340Z,91.21
2023-03-29T19:21:50.144Z,91.04
2023-03-29T19:24:16.938Z,91.23
2023-03-29T19:26:44.479Z,91.24
2023-03-29T19:29:11.756Z,90.88
2023-03-29T19:31:38.970Z,91.25
2023-03-29T19:34:07.119Z,91.41
2023-03-29T19:36:33.941Z,91.41
2023-03-29T19:39:01.322Z,91.50
2023-03-29T19:41:28.503Z,91.43
2023-03-29T19:43:55.531Z,91.45
2023-03-29T19:46:22.558Z,91.63
2023-03-29T19:48:49.653Z,91.73
2023-03-29T19:51:16.817Z,91.49
2023-03-29T19:53:43.867Z,91.83
2023-03-29T19:56:11.158Z,91.65
2023-03-29T19:58:38.153Z,91.83
2023-03-29T20:01:05.184Z,92.01
2023-03-29T20:03:34.226Z,91.75
2023-03-29T20:06:01.574Z,91.94
2023-03-29T20:08:28.644Z,92.10
2023-03-29T20:11:14.745Z,92.06
2023-03-29T20:13:43.071Z,92.09
2023-03-29T20:16:12.871Z,92.92
2023-03-29T20:18:40.325Z,92.61
2023-03-29T20:21:08.486Z,92.77
2023-03-29T20:26:20.284Z,92.45
2023-03-29T20:28:47.597Z,92.80
2023-03-29T20:31:14.487Z,92.63
2023-03-29T20:33:42.404Z,92.53
2023-03-29T20:36:09.316Z,92.70
2023-03-29T20:38:36.354Z,92.87
2023-03-29T20:41:05.418Z,92.46
2023-03-29T20:43:37.520Z,92.95
2023-03-29T20:46:06.025Z,92.62
2023-03-29T20:48:32.787Z,92.95
2023-03-29T20:51:03.095Z,93.07
2023-03-29T20:53:34.266Z,93.11
2023-03-29T20:56:00.973Z,92.87
2023-03-29T20:58:29.157Z,93.03
2023-03-29T21:00:59.135Z,93.14
2023-03-29T21:03:26.415Z,93.22
2023-03-29T21:05:55.299Z,93.03
2023-03-29T21:08:22.150Z,92.91
2023-03-29T21:10:49.022Z,93.33
2023-03-29T21:13:15.974Z,93.40
2023-03-29T21:15:43.797Z,93.37
2023-03-29T21:18:16.868Z,93.53
2023-03-29T21:20:45.410Z,93.53
2023-03-29T21:23:13.518Z,93.81
2023-03-29T21:25:41.015Z,93.79
2023-03-29T21:28:07.996Z,93.90
2023-03-29T21:30:34.819Z,93.67
2023-03-29T21:33:01.980Z,94.07
2023-03-29T21:35:29.090Z,94.01
2023-03-29T21:37:56.132Z,93.61
2023-03-29T21:40:23.768Z,94.27
2023-03-29T21:42:53.118Z,94.22
2023-03-29T21:45:19.947Z,94.53
2023-03-29T21:47:46.699Z,94.22
2023-03-29T21:50:13.854Z,94.17
2023-03-29T21:52:41.018Z,94.38
2023-03-29T21:55:08.419Z,94.36
2023-03-29T21:57:35.197Z,94.44
2023-03-29T22:00:02.693Z,94.16
2023-03-29T22:02:32.277Z,94.58
2023-03-29T22:04:59.304Z,94.57
2023-03-29T22:07:26.175Z,94.84
2023-03-29T22:09:53.028Z,95.38
2023-03-29T22:12:19.763Z,95.35
2023-03-29T22:14:47.460Z,95.65
2023-03-29T22:17:16.064Z,95.49
2023-03-29T22:19:43.500Z,95.78
2023-03-29T22:22:13.903Z,95.94
2023-03-29T22:24:41.588Z,95.83
2023-03-29T22:27:08.535Z,96.19
2023-03-29T22:29:35.468Z,95.91
2023-03-29T22:32:02.331Z,95.95
2023-03-29T22:34:30.134Z,95.77
2023-03-29T22:36:56.876Z,95.71
2023-03-29T22:39:23.684Z,95.50
2023-03-29T22:41:50.457Z,95.39
2023-03-29T22:44:17.198Z,95.25
2023-03-29T22:46:44.072Z,95.21
2023-03-29T22:49:11.513Z,95.53
2023-03-29T22:51:38.289Z,95.55
2023-03-29T22:54:05.156Z,95.54
2023-03-29T22:56:32.048Z,95.62
2023-03-29T22:58:58.908Z,95.36
2023-03-29T23:01:25.670Z,95.38
2023-03-29T23:03:52.511Z,95.53
2023-03-29T23:06:19.243Z,95.74
2023-03-29T23:08:46.040Z,95.68
2023-03-29T23:11:12.836Z,95.65
2023-03-29T23:13:39.967Z,95.86
2023-03-29T23:16:07.245Z,95.50
2023-03-29T23:18:37.859Z,95.82
2023-03-29T23:21:06.070Z,96.25
2023-03-29T23:23:33.720Z,96.26
2023-03-29T23:26:00.727Z,96.23
2023-03-29T23:28:34.772Z,96.41
2023-03-29T23:31:13.512Z,96.08
2023-03-29T23:33:42.772Z,96.25
2023-03-29T23:36:12.833Z,95.79
2023-03-29T23:38:40.018Z,96.21
2023-03-29T23:41:10.464Z,95.97
2023-03-29T23:43:42.850Z,96.08
2023-03-29T23:46:12.332Z,96.22
2023-03-29T23:48:39.404Z,95.97
2023-03-29T23:51:08.095Z,96.19
2023-03-29T23:53:34.962Z,96.04
2023-03-29T23:56:04.127Z,96.07
2023-03-29T23:58:34.064Z,95.88
